sensor_id;sensor_type;location;lat;lon;timestamp;P1;durP1;ratioP1;P2;durP2;ratioP2
16450;SDS011;12243;42.708;23.310;2023-08-24T00:01:53;10.95;;;9.80;;
16450;SDS011;12243;42.708;23.310;2023-08-24T00:04:20;11.00;;;10.00;;
16450;SDS011;12243;42.708;23.310;2023-08-24T00:06:48;10.45;;;9.43;;
16450;SDS011;12243;42.708;23.310;2023-08-24T00:09:14;10.93;;;9.75;;
16450;SDS011;12243;42.708;23.310;2023-08-24T00:11:41;11.98;;;10.88;;
16450;SDS011;12243;42.708;23.310;2023-08-24T00:14:08;11.52;;;10.45;;
16450;SDS011;12243;42.708;23.310;2023-08-24T00:16:37;10.15;;;9.25;;
16450;SDS011;12243;42.708;23.310;2023-08-24T00:19:04;12.38;;;9.68;;
16450;SDS011;12243;42.708;23.310;2023-08-24T00:21:30;11.30;;;10.02;;
16450;SDS011;12243;42.708;23.310;2023-08-24T00:23:57;10.73;;;9.82;;
16450;SDS011;12243;42.708;23.310;2023-08-24T00:26:25;10.63;;;9.57;;
16450;SDS011;12243;42.708;23.310;2023-08-24T00:28:51;12.02;;;10.45;;
16450;SDS011;12243;42.708;23.310;2023-08-24T00:31:19;10.98;;;9.77;;
16450;SDS011;12243;42.708;23.310;2023-08-24T00:33:48;10.70;;;9.70;;
16450;SDS011;12243;42.708;23.310;2023-08-24T00:36:16;11.05;;;9.95;;
16450;SDS011;12243;42.708;23.310;2023-08-24T00:38:44;11.13;;;10.10;;
16450;SDS011;12243;42.708;23.310;2023-08-24T00:41:16;10.93;;;9.93;;
16450;SDS011;12243;42.708;23.310;2023-08-24T00:43:42;11.73;;;10.48;;
16450;SDS011;12243;42.708;23.310;2023-08-24T00:46:09;10.48;;;9.57;;
16450;SDS011;12243;42.708;23.310;2023-08-24T00:48:36;11.43;;;10.27;;
16450;SDS011;12243;42.708;23.310;2023-08-24T00:54:21;11.13;;;10.00;;
16450;SDS011;12243;42.708;23.310;2023-08-24T00:56:48;11.18;;;10.20;;
16450;SDS011;12243;42.708;23.310;2023-08-24T00:59:15;10.70;;;9.50;;
16450;SDS011;12243;42.708;23.310;2023-08-24T01:01:42;10.75;;;9.80;;
16450;SDS011;12243;42.708;23.310;2023-08-24T01:04:13;10.75;;;9.77;;
16450;SDS011;12243;42.708;23.310;2023-08-24T01:06:40;11.30;;;10.30;;
16450;SDS011;12243;42.708;23.310;2023-08-24T01:09:07;10.70;;;9.77;;
16450;SDS011;12243;42.708;23.310;2023-08-24T01:11:39;11.38;;;10.27;;
16450;SDS011;12243;42.708;23.310;2023-08-24T01:14:20;11.32;;;10.18;;
16450;SDS011;12243;42.708;23.310;2023-08-24T01:16:56;12.00;;;10.07;;
16450;SDS011;12243;42.708;23.310;2023-08-24T01:19:32;11.50;;;10.50;;
16450;SDS011;12243;42.708;23.310;2023-08-24T01:22:05;11.68;;;10.50;;
16450;SDS011;12243;42.708;23.310;2023-08-24T01:24:42;11.57;;;9.82;;
16450;SDS011;12243;42.708;23.310;2023-08-24T01:27:15;11.25;;;10.13;;
16450;SDS011;12243;42.708;23.310;2023-08-24T01:29:43;10.85;;;9.75;;
16450;SDS011;12243;42.708;23.310;2023-08-24T01:32:10;10.07;;;9.18;;
16450;SDS011;12243;42.708;23.310;2023-08-24T01:34:37;10.35;;;9.23;;
16450;SDS011;12243;42.708;23.310;2023-08-24T01:37:05;11.52;;;9.90;;
16450;SDS011;12243;42.708;23.310;2023-08-24T01:39:35;11.47;;;10.33;;
16450;SDS011;12243;42.708;23.310;2023-08-24T01:42:10;10.05;;;9.15;;
16450;SDS011;12243;42.708;23.310;2023-08-24T01:44:44;11.68;;;9.10;;
16450;SDS011;12243;42.708;23.310;2023-08-24T01:47:14;10.30;;;9.40;;
16450;SDS011;12243;42.708;23.310;2023-08-24T01:49:42;10.15;;;9.25;;
16450;SDS011;12243;42.708;23.310;2023-08-24T01:52:10;10.00;;;9.18;;
16450;SDS011;12243;42.708;23.310;2023-08-24T01:54:38;10.00;;;9.20;;
16450;SDS011;12243;42.708;23.310;2023-08-24T01:57:06;10.30;;;9.30;;
16450;SDS011;12243;42.708;23.310;2023-08-24T01:59:33;10.63;;;9.52;;
16450;SDS011;12243;42.708;23.310;2023-08-24T02:02:01;12.10;;;9.70;;
16450;SDS011;12243;42.708;23.310;2023-08-24T02:04:29;9.55;;;8.85;;
16450;SDS011;12243;42.708;23.310;2023-08-24T02:06:55;10.43;;;9.63;;
16450;SDS011;12243;42.708;23.310;2023-08-24T02:09:23;9.80;;;8.90;;
16450;SDS011;12243;42.708;23.310;2023-08-24T02:11:51;9.93;;;9.05;;
16450;SDS011;12243;42.708;23.310;2023-08-24T02:14:18;10.57;;;9.57;;
16450;SDS011;12243;42.708;23.310;2023-08-24T02:16:44;10.63;;;9.70;;
16450;SDS011;12243;42.708;23.310;2023-08-24T02:19:13;10.68;;;9.40;;
16450;SDS011;12243;42.708;23.310;2023-08-24T02:21:40;11.15;;;10.13;;
16450;SDS011;12243;42.708;23.310;2023-08-24T02:24:07;10.95;;;9.95;;
16450;SDS011;12243;42.708;23.310;2023-08-24T02:26:33;11.55;;;10.45;;
16450;SDS011;12243;42.708;23.310;2023-08-24T02:29:00;11.45;;;10.43;;
16450;SDS011;12243;42.708;23.310;2023-08-24T02:31:28;10.68;;;9.82;;
16450;SDS011;12243;42.708;23.310;2023-08-24T02:33:55;10.82;;;9.75;;
16450;SDS011;12243;42.708;23.310;2023-08-24T02:36:24;10.73;;;9.73;;
16450;SDS011;12243;42.708;23.310;2023-08-24T02:38:50;10.40;;;9.48;;
16450;SDS011;12243;42.708;23.310;2023-08-24T02:41:17;10.55;;;9.48;;
16450;SDS011;12243;42.708;23.310;2023-08-24T02:43:44;9.80;;;9.00;;
16450;SDS011;12243;42.708;23.310;2023-08-24T02:46:11;10.02;;;9.23;;
16450;SDS011;12243;42.708;23.310;2023-08-24T02:48:38;10.30;;;9.30;;
16450;SDS011;12243;42.708;23.310;2023-08-24T02:51:05;10.70;;;9.85;;
16450;SDS011;12243;42.708;23.310;2023-08-24T02:53:33;12.75;;;11.05;;
16450;SDS011;12243;42.708;23.310;2023-08-24T02:56:00;11.52;;;10.35;;
16450;SDS011;12243;42.708;23.310;2023-08-24T02:58:27;16.65;;;11.60;;
16450;SDS011;12243;42.708;23.310;2023-08-24T03:00:54;12.30;;;11.20;;
16450;SDS011;12243;42.708;23.310;2023-08-24T03:03:21;12.18;;;11.02;;
16450;SDS011;12243;42.708;23.310;2023-08-24T03:05:55;11.07;;;10.18;;
16450;SDS011;12243;42.708;23.310;2023-08-24T03:08:23;12.07;;;10.98;;
16450;SDS011;12243;42.708;23.310;2023-08-24T03:10:51;11.27;;;9.75;;
16450;SDS011;12243;42.708;23.310;2023-08-24T03:13:19;11.70;;;10.38;;
16450;SDS011;12243;42.708;23.310;2023-08-24T03:15:46;11.82;;;10.73;;
16450;SDS011;12243;42.708;23.310;2023-08-24T03:18:13;11.45;;;10.45;;
16450;SDS011;12243;42.708;23.310;2023-08-24T03:20:41;14.70;;;12.02;;
16450;SDS011;12243;42.708;23.310;2023-08-24T03:23:08;12.63;;;11.40;;
16450;SDS011;12243;42.708;23.310;2023-08-24T03:25:36;13.18;;;11.98;;
16450;SDS011;12243;42.708;23.310;2023-08-24T03:28:05;12.10;;;10.82;;
16450;SDS011;12243;42.708;23.310;2023-08-24T03:30:33;14.10;;;11.07;;
16450;SDS011;12243;42.708;23.310;2023-08-24T03:33:00;14.15;;;11.13;;
16450;SDS011;12243;42.708;23.310;2023-08-24T03:35:28;15.57;;;11.63;;
16450;SDS011;12243;42.708;23.310;2023-08-24T03:37:55;12.30;;;11.18;;
16450;SDS011;12243;42.708;23.310;2023-08-24T03:40:23;14.20;;;11.55;;
16450;SDS011;12243;42.708;23.310;2023-08-24T03:42:50;11.52;;;10.43;;
16450;SDS011;12243;42.708;23.310;2023-08-24T03:45:19;13.00;;;11.70;;
16450;SDS011;12243;42.708;23.310;2023-08-24T03:47:46;13.65;;;11.52;;
16450;SDS011;12243;42.708;23.310;2023-08-24T03:50:13;13.65;;;11.90;;
16450;SDS011;12243;42.708;23.310;2023-08-24T03:52:40;14.27;;;12.13;;
16450;SDS011;12243;42.708;23.310;2023-08-24T03:55:07;12.10;;;10.90;;
16450;SDS011;12243;42.708;23.310;2023-08-24T03:57:34;12.32;;;11.25;;
16450;SDS011;12243;42.708;23.310;2023-08-24T04:00:03;13.27;;;12.13;;
16450;SDS011;12243;42.708;23.310;2023-08-24T04:02:40;13.95;;;12.60;;
16450;SDS011;12243;42.708;23.310;2023-08-24T04:05:10;13.18;;;12.02;;
16450;SDS011;12243;42.708;23.310;2023-08-24T04:07:37;14.68;;;12.52;;
16450;SDS011;12243;42.708;23.310;2023-08-24T04:10:06;12.75;;;11.65;;
16450;SDS011;12243;42.708;23.310;2023-08-24T04:12:34;12.48;;;11.38;;
16450;SDS011;12243;42.708;23.310;2023-08-24T04:15:01;14.00;;;12.70;;
16450;SDS011;12243;42.708;23.310;2023-08-24T04:17:28;12.85;;;11.65;;
16450;SDS011;12243;42.708;23.310;2023-08-24T04:19:56;11.65;;;10.48;;
16450;SDS011;12243;42.708;23.310;2023-08-24T04:22:23;14.48;;;13.07;;
16450;SDS011;12243;42.708;23.310;2023-08-24T04:24:50;12.60;;;11.32;;
16450;SDS011;12243;42.708;23.310;2023-08-24T04:27:17;14.35;;;12.82;;
16450;SDS011;12243;42.708;23.310;2023-08-24T04:29:44;13.48;;;11.73;;
16450;SDS011;12243;42.708;23.310;2023-08-24T04:32:11;16.02;;;13.20;;
16450;SDS011;12243;42.708;23.310;2023-08-24T04:34:37;13.40;;;12.10;;
16450;SDS011;12243;42.708;23.310;2023-08-24T04:37:06;12.75;;;10.82;;
16450;SDS011;12243;42.708;23.310;2023-08-24T04:39:33;12.27;;;11.18;;
16450;SDS011;12243;42.708;23.310;2023-08-24T04:42:00;12.75;;;11.63;;
16450;SDS011;12243;42.708;23.310;2023-08-24T04:44:27;13.88;;;11.80;;
16450;SDS011;12243;42.708;23.310;2023-08-24T04:46:54;12.18;;;11.05;;
16450;SDS011;12243;42.708;23.310;2023-08-24T04:49:21;12.45;;;11.27;;
16450;SDS011;12243;42.708;23.310;2023-08-24T04:51:48;12.75;;;11.57;;
16450;SDS011;12243;42.708;23.310;2023-08-24T04:54:16;12.10;;;11.00;;
16450;SDS011;12243;42.708;23.310;2023-08-24T04:56:43;13.23;;;11.90;;
16450;SDS011;12243;42.708;23.310;2023-08-24T04:59:10;13.32;;;11.93;;
16450;SDS011;12243;42.708;23.310;2023-08-24T05:01:37;15.20;;;12.60;;
16450;SDS011;12243;42.708;23.310;2023-08-24T05:04:04;13.02;;;11.80;;
16450;SDS011;12243;42.708;23.310;2023-08-24T05:06:31;14.38;;;12.30;;
16450;SDS011;12243;42.708;23.310;2023-08-24T05:08:57;14.18;;;12.23;;
16450;SDS011;12243;42.708;23.310;2023-08-24T05:11:26;12.07;;;10.95;;
16450;SDS011;12243;42.708;23.310;2023-08-24T05:13:54;14.48;;;12.50;;
16450;SDS011;12243;42.708;23.310;2023-08-24T05:16:22;14.70;;;12.85;;
16450;SDS011;12243;42.708;23.310;2023-08-24T05:18:48;13.65;;;12.35;;
16450;SDS011;12243;42.708;23.310;2023-08-24T05:21:15;13.27;;;12.07;;
16450;SDS011;12243;42.708;23.310;2023-08-24T05:23:42;12.20;;;11.10;;
16450;SDS011;12243;42.708;23.310;2023-08-24T05:26:09;18.70;;;12.30;;
16450;SDS011;12243;42.708;23.310;2023-08-24T05:28:37;14.45;;;12.85;;
16450;SDS011;12243;42.708;23.310;2023-08-24T05:31:04;13.50;;;12.10;;
16450;SDS011;12243;42.708;23.310;2023-08-24T05:33:31;14.50;;;13.13;;
16450;SDS011;12243;42.708;23.310;2023-08-24T05:35:58;14.70;;;12.60;;
16450;SDS011;12243;42.708;23.310;2023-08-24T05:38:25;15.05;;;12.70;;
16450;SDS011;12243;42.708;23.310;2023-08-24T05:40:52;16.00;;;12.80;;
16450;SDS011;12243;42.708;23.310;2023-08-24T05:43:18;12.85;;;11.27;;
16450;SDS011;12243;42.708;23.310;2023-08-24T05:45:47;13.52;;;12.13;;
16450;SDS011;12243;42.708;23.310;2023-08-24T05:48:14;13.90;;;12.43;;
16450;SDS011;12243;42.708;23.310;2023-08-24T05:50:44;18.65;;;12.18;;
16450;SDS011;12243;42.708;23.310;2023-08-24T05:53:11;12.95;;;11.75;;
16450;SDS011;12243;42.708;23.310;2023-08-24T05:55:38;14.20;;;12.30;;
16450;SDS011;12243;42.708;23.310;2023-08-24T05:58:05;13.45;;;11.35;;
16450;SDS011;12243;42.708;23.310;2023-08-24T06:00:32;15.23;;;11.68;;
16450;SDS011;12243;42.708;23.310;2023-08-24T06:03:01;14.80;;;11.35;;
16450;SDS011;12243;42.708;23.310;2023-08-24T06:05:29;17.15;;;12.57;;
16450;SDS011;12243;42.708;23.310;2023-08-24T06:07:56;16.77;;;12.80;;
16450;SDS011;12243;42.708;23.310;2023-08-24T06:10:23;14.93;;;12.82;;
16450;SDS011;12243;42.708;23.310;2023-08-24T06:12:51;14.23;;;12.70;;
16450;SDS011;12243;42.708;23.310;2023-08-24T06:15:18;13.80;;;10.88;;
16450;SDS011;12243;42.708;23.310;2023-08-24T06:17:48;14.95;;;12.45;;
16450;SDS011;12243;42.708;23.310;2023-08-24T06:20:17;13.88;;;12.68;;
16450;SDS011;12243;42.708;23.310;2023-08-24T06:22:44;13.90;;;12.50;;
16450;SDS011;12243;42.708;23.310;2023-08-24T06:25:11;14.10;;;12.80;;
16450;SDS011;12243;42.708;23.310;2023-08-24T06:27:38;14.90;;;13.40;;
16450;SDS011;12243;42.708;23.310;2023-08-24T06:30:05;16.67;;;14.30;;
16450;SDS011;12243;42.708;23.310;2023-08-24T06:32:33;13.70;;;12.40;;
16450;SDS011;12243;42.708;23.310;2023-08-24T06:34:59;15.98;;;14.35;;
16450;SDS011;12243;42.708;23.310;2023-08-24T06:37:28;16.58;;;14.43;;
16450;SDS011;12243;42.708;23.310;2023-08-24T06:39:54;13.90;;;12.73;;
16450;SDS011;12243;42.708;23.310;2023-08-24T06:42:21;16.08;;;13.32;;
16450;SDS011;12243;42.708;23.310;2023-08-24T06:44:48;13.88;;;11.77;;
16450;SDS011;12243;42.708;23.310;2023-08-24T06:47:16;15.32;;;13.80;;
16450;SDS011;12243;42.708;23.310;2023-08-24T06:49:43;15.35;;;13.60;;
16450;SDS011;12243;42.708;23.310;2023-08-24T06:52:10;14.38;;;13.10;;
16450;SDS011;12243;42.708;23.310;2023-08-24T06:54:38;15.07;;;13.45;;
16450;SDS011;12243;42.708;23.310;2023-08-24T06:57:05;15.05;;;13.50;;
16450;SDS011;12243;42.708;23.310;2023-08-24T06:59:32;14.02;;;12.88;;
16450;SDS011;12243;42.708;23.310;2023-08-24T07:01:59;14.05;;;12.65;;
16450;SDS011;12243;42.708;23.310;2023-08-24T07:04:26;17.88;;;13.95;;
16450;SDS011;12243;42.708;23.310;2023-08-24T07:06:54;13.27;;;12.15;;
16450;SDS011;12243;42.708;23.310;2023-08-24T07:09:21;14.10;;;12.10;;
16450;SDS011;12243;42.708;23.310;2023-08-24T07:11:49;15.35;;;13.75;;
16450;SDS011;12243;42.708;23.310;2023-08-24T07:14:16;14.85;;;13.32;;
16450;SDS011;12243;42.708;23.310;2023-08-24T07:16:43;13.15;;;12.05;;
16450;SDS011;12243;42.708;23.310;2023-08-24T07:19:10;13.65;;;12.45;;
16450;SDS011;12243;42.708;23.310;2023-08-24T07:24:34;13.10;;;11.90;;
16450;SDS011;12243;42.708;23.310;2023-08-24T07:27:03;13.00;;;11.90;;
16450;SDS011;12243;42.708;23.310;2023-08-24T07:29:30;15.73;;;11.82;;
16450;SDS011;12243;42.708;23.310;2023-08-24T07:31:57;13.93;;;12.60;;
16450;SDS011;12243;42.708;23.310;2023-08-24T07:34:24;13.30;;;11.73;;
16450;SDS011;12243;42.708;23.310;2023-08-24T07:36:51;13.75;;;12.45;;
16450;SDS011;12243;42.708;23.310;2023-08-24T07:39:18;13.50;;;12.10;;
16450;SDS011;12243;42.708;23.310;2023-08-24T07:41:45;14.02;;;11.90;;
16450;SDS011;12243;42.708;23.310;2023-08-24T07:44:13;12.52;;;11.32;;
16450;SDS011;12243;42.708;23.310;2023-08-24T07:46:40;13.50;;;12.30;;
16450;SDS011;12243;42.708;23.310;2023-08-24T07:49:07;12.63;;;11.35;;
16450;SDS011;12243;42.708;23.310;2023-08-24T07:51:33;12.02;;;10.93;;
16450;SDS011;12243;42.708;23.310;2023-08-24T07:54:00;12.10;;;10.90;;
16450;SDS011;12243;42.708;23.310;2023-08-24T07:56:29;12.18;;;11.07;;
16450;SDS011;12243;42.708;23.310;2023-08-24T07:58:56;15.02;;;10.88;;
16450;SDS011;12243;42.708;23.310;2023-08-24T08:01:24;10.93;;;9.73;;
16450;SDS011;12243;42.708;23.310;2023-08-24T08:03:51;12.05;;;10.93;;
16450;SDS011;12243;42.708;23.310;2023-08-24T08:06:18;12.27;;;11.07;;
16450;SDS011;12243;42.708;23.310;2023-08-24T08:08:47;11.30;;;10.30;;
16450;SDS011;12243;42.708;23.310;2023-08-24T08:11:15;11.80;;;10.80;;
16450;SDS011;12243;42.708;23.310;2023-08-24T08:13:42;12.95;;;11.65;;
16450;SDS011;12243;42.708;23.310;2023-08-24T08:16:09;12.60;;;11.00;;
16450;SDS011;12243;42.708;23.310;2023-08-24T08:18:37;10.80;;;9.90;;
16450;SDS011;12243;42.708;23.310;2023-08-24T08:21:08;13.52;;;11.68;;
16450;SDS011;12243;42.708;23.310;2023-08-24T08:23:35;11.07;;;10.20;;
16450;SDS011;12243;42.708;23.310;2023-08-24T08:26:02;11.82;;;10.73;;
16450;SDS011;12243;42.708;23.310;2023-08-24T08:28:29;11.32;;;10.23;;
16450;SDS011;12243;42.708;23.310;2023-08-24T08:30:58;13.43;;;11.23;;
16450;SDS011;12243;42.708;23.310;2023-08-24T08:33:25;11.63;;;10.70;;
16450;SDS011;12243;42.708;23.310;2023-08-24T08:35:53;11.88;;;10.77;;
16450;SDS011;12243;42.708;23.310;2023-08-24T08:38:20;11.43;;;10.43;;
16450;SDS011;12243;42.708;23.310;2023-08-24T08:40:51;12.23;;;10.98;;
16450;SDS011;12243;42.708;23.310;2023-08-24T08:43:22;11.65;;;10.55;;
16450;SDS011;12243;42.708;23.310;2023-08-24T08:45:49;11.45;;;10.45;;
16450;SDS011;12243;42.708;23.310;2023-08-24T08:48:18;11.05;;;10.20;;
16450;SDS011;12243;42.708;23.310;2023-08-24T08:50:47;12.23;;;10.88;;
16450;SDS011;12243;42.708;23.310;2023-08-24T08:53:16;12.38;;;11.38;;
16450;SDS011;12243;42.708;23.310;2023-08-24T08:55:46;11.50;;;10.50;;
16450;SDS011;12243;42.708;23.310;2023-08-24T08:58:14;12.43;;;11.32;;
16450;SDS011;12243;42.708;23.310;2023-08-24T09:00:41;11.63;;;10.70;;
16450;SDS011;12243;42.708;23.310;2023-08-24T09:03:08;11.90;;;10.90;;
16450;SDS011;12243;42.708;23.310;2023-08-24T09:05:35;11.85;;;10.85;;
16450;SDS011;12243;42.708;23.310;2023-08-24T09:08:04;12.45;;;11.20;;
16450;SDS011;12243;42.708;23.310;2023-08-24T09:10:33;11.57;;;10.48;;
16450;SDS011;12243;42.708;23.310;2023-08-24T09:12:59;12.88;;;11.18;;
16450;SDS011;12243;42.708;23.310;2023-08-24T09:15:26;13.18;;;11.73;;
16450;SDS011;12243;42.708;23.310;2023-08-24T09:17:54;12.40;;;11.25;;
16450;SDS011;12243;42.708;23.310;2023-08-24T09:20:21;12.63;;;11.52;;
16450;SDS011;12243;42.708;23.310;2023-08-24T09:22:48;13.07;;;11.88;;
16450;SDS011;12243;42.708;23.310;2023-08-24T09:25:19;14.18;;;11.45;;
16450;SDS011;12243;42.708;23.310;2023-08-24T09:27:47;12.38;;;11.48;;
16450;SDS011;12243;42.708;23.310;2023-08-24T09:30:22;12.48;;;11.25;;
16450;SDS011;12243;42.708;23.310;2023-08-24T09:32:49;13.00;;;12.00;;
16450;SDS011;12243;42.708;23.310;2023-08-24T09:35:16;13.82;;;12.52;;
16450;SDS011;12243;42.708;23.310;2023-08-24T09:37:43;12.85;;;11.65;;
16450;SDS011;12243;42.708;23.310;2023-08-24T09:40:11;13.05;;;12.05;;
16450;SDS011;12243;42.708;23.310;2023-08-24T09:42:38;13.18;;;11.85;;
16450;SDS011;12243;42.708;23.310;2023-08-24T09:45:10;13.57;;;12.27;;
16450;SDS011;12243;42.708;23.310;2023-08-24T09:47:39;12.43;;;11.32;;
16450;SDS011;12243;42.708;23.310;2023-08-24T09:50:11;12.10;;;11.15;;
16450;SDS011;12243;42.708;23.310;2023-08-24T09:52:37;12.82;;;11.70;;
16450;SDS011;12243;42.708;23.310;2023-08-24T09:55:09;12.60;;;11.45;;
16450;SDS011;12243;42.708;23.310;2023-08-24T09:57:37;12.68;;;11.68;;
16450;SDS011;12243;42.708;23.310;2023-08-24T10:00:05;13.10;;;12.00;;
16450;SDS011;12243;42.708;23.310;2023-08-24T10:02:39;11.85;;;10.88;;
16450;SDS011;12243;42.708;23.310;2023-08-24T10:05:13;12.73;;;11.38;;
16450;SDS011;12243;42.708;23.310;2023-08-24T10:07:46;11.75;;;10.75;;
16450;SDS011;12243;42.708;23.310;2023-08-24T10:10:17;12.52;;;11.52;;
16450;SDS011;12243;42.708;23.310;2023-08-24T10:12:49;12.02;;;11.05;;
16450;SDS011;12243;42.708;23.310;2023-08-24T10:15:17;12.32;;;11.25;;
16450;SDS011;12243;42.708;23.310;2023-08-24T10:17:48;12.00;;;11.10;;
16450;SDS011;12243;42.708;23.310;2023-08-24T10:20:17;10.60;;;9.80;;
16450;SDS011;12243;42.708;23.310;2023-08-24T10:22:46;12.02;;;11.02;;
16450;SDS011;12243;42.708;23.310;2023-08-24T10:25:14;11.57;;;10.68;;
16450;SDS011;12243;42.708;23.310;2023-08-24T10:27:42;9.43;;;8.63;;
16450;SDS011;12243;42.708;23.310;2023-08-24T10:30:13;10.05;;;9.25;;
16450;SDS011;12243;42.708;23.310;2023-08-24T10:32:42;11.10;;;10.10;;
16450;SDS011;12243;42.708;23.310;2023-08-24T10:35:12;10.30;;;9.50;;
16450;SDS011;12243;42.708;23.310;2023-08-24T10:37:41;10.38;;;9.48;;
16450;SDS011;12243;42.708;23.310;2023-08-24T10:40:12;10.63;;;9.77;;
16450;SDS011;12243;42.708;23.310;2023-08-24T10:42:45;11.35;;;10.45;;
16450;SDS011;12243;42.708;23.310;2023-08-24T10:45:13;10.02;;;9.23;;
16450;SDS011;12243;42.708;23.310;2023-08-24T10:47:44;9.77;;;8.88;;
16450;SDS011;12243;42.708;23.310;2023-08-24T10:50:13;10.68;;;9.88;;
16450;SDS011;12243;42.708;23.310;2023-08-24T10:52:42;12.57;;;11.68;;
16450;SDS011;12243;42.708;23.310;2023-08-24T10:55:23;10.98;;;9.88;;
16450;SDS011;12243;42.708;23.310;2023-08-24T10:57:56;12.95;;;10.30;;
16450;SDS011;12243;42.708;23.310;2023-08-24T11:00:25;11.75;;;9.73;;
16450;SDS011;12243;42.708;23.310;2023-08-24T11:02:53;9.95;;;9.05;;
16450;SDS011;12243;42.708;23.310;2023-08-24T11:05:22;11.10;;;8.68;;
16450;SDS011;12243;42.708;23.310;2023-08-24T11:07:53;8.55;;;7.82;;
16450;SDS011;12243;42.708;23.310;2023-08-24T11:10:22;9.98;;;8.23;;
16450;SDS011;12243;42.708;23.310;2023-08-24T11:13:06;11.30;;;9.63;;
16450;SDS011;12243;42.708;23.310;2023-08-24T11:15:37;9.55;;;8.70;;
16450;SDS011;12243;42.708;23.310;2023-08-24T11:18:12;9.40;;;8.50;;
16450;SDS011;12243;42.708;23.310;2023-08-24T11:20:41;11.48;;;10.38;;
16450;SDS011;12243;42.708;23.310;2023-08-24T11:23:10;11.52;;;9.40;;
16450;SDS011;12243;42.708;23.310;2023-08-24T11:25:37;10.38;;;9.35;;
16450;SDS011;12243;42.708;23.310;2023-08-24T11:28:04;10.13;;;9.13;;
16450;SDS011;12243;42.708;23.310;2023-08-24T11:30:31;10.40;;;9.40;;
16450;SDS011;12243;42.708;23.310;2023-08-24T11:32:59;10.43;;;9.32;;
16450;SDS011;12243;42.708;23.310;2023-08-24T11:35:26;9.48;;;8.75;;
16450;SDS011;12243;42.708;23.310;2023-08-24T11:37:55;9.05;;;8.27;;
16450;SDS011;12243;42.708;23.310;2023-08-24T11:40:23;11.15;;;9.13;;
16450;SDS011;12243;42.708;23.310;2023-08-24T11:42:54;9.13;;;8.40;;
16450;SDS011;12243;42.708;23.310;2023-08-24T11:45:21;8.82;;;8.07;;
16450;SDS011;12243;42.708;23.310;2023-08-24T11:47:50;8.88;;;8.15;;
16450;SDS011;12243;42.708;23.310;2023-08-24T11:50:17;8.90;;;7.97;;
16450;SDS011;12243;42.708;23.310;2023-08-24T11:52:44;12.18;;;8.65;;
16450;SDS011;12243;42.708;23.310;2023-08-24T11:55:12;9.80;;;8.75;;
16450;SDS011;12243;42.708;23.310;2023-08-24T11:57:39;9.77;;;8.88;;
16450;SDS011;12243;42.708;23.310;2023-08-24T12:00:06;9.40;;;8.50;;
16450;SDS011;12243;42.708;23.310;2023-08-24T12:02:36;10.35;;;8.95;;
16450;SDS011;12243;42.708;23.310;2023-08-24T12:05:05;9.77;;;8.73;;
16450;SDS011;12243;42.708;23.310;2023-08-24T12:07:33;10.43;;;9.43;;
16450;SDS011;12243;42.708;23.310;2023-08-24T12:10:00;13.98;;;9.43;;
16450;SDS011;12243;42.708;23.310;2023-08-24T12:12:29;9.77;;;8.88;;
16450;SDS011;12243;42.708;23.310;2023-08-24T12:14:56;10.07;;;9.07;;
16450;SDS011;12243;42.708;23.310;2023-08-24T12:17:23;10.25;;;9.15;;
16450;SDS011;12243;42.708;23.310;2023-08-24T12:19:57;11.60;;;10.40;;
16450;SDS011;12243;42.708;23.310;2023-08-24T12:22:25;10.80;;;9.82;;
16450;SDS011;12243;42.708;23.310;2023-08-24T12:24:53;11.65;;;10.52;;
16450;SDS011;12243;42.708;23.310;2023-08-24T12:27:20;10.40;;;9.50;;
16450;SDS011;12243;42.708;23.310;2023-08-24T12:29:50;10.32;;;9.50;;
16450;SDS011;12243;42.708;23.310;2023-08-24T12:32:17;10.15;;;9.45;;
16450;SDS011;12243;42.708;23.310;2023-08-24T12:34:45;10.43;;;9.35;;
16450;SDS011;12243;42.708;23.310;2023-08-24T12:37:12;10.35;;;9.35;;
16450;SDS011;12243;42.708;23.310;2023-08-24T12:39:39;10.82;;;9.68;;
16450;SDS011;12243;42.708;23.310;2023-08-24T12:42:06;9.88;;;9.07;;
16450;SDS011;12243;42.708;23.310;2023-08-24T12:44:33;10.23;;;9.25;;
16450;SDS011;12243;42.708;23.310;2023-08-24T12:47:03;10.10;;;9.30;;
16450;SDS011;12243;42.708;23.310;2023-08-24T12:49:31;10.43;;;9.45;;
16450;SDS011;12243;42.708;23.310;2023-08-24T12:51:58;11.07;;;9.98;;
16450;SDS011;12243;42.708;23.310;2023-08-24T12:54:25;11.80;;;10.70;;
16450;SDS011;12243;42.708;23.310;2023-08-24T12:56:51;11.48;;;10.48;;
16450;SDS011;12243;42.708;23.310;2023-08-24T12:59:18;10.93;;;9.88;;
16450;SDS011;12243;42.708;23.310;2023-08-24T13:01:45;10.20;;;9.30;;
16450;SDS011;12243;42.708;23.310;2023-08-24T13:04:13;9.65;;;8.85;;
16450;SDS011;12243;42.708;23.310;2023-08-24T13:06:40;10.23;;;9.05;;
16450;SDS011;12243;42.708;23.310;2023-08-24T13:09:07;10.30;;;9.30;;
16450;SDS011;12243;42.708;23.310;2023-08-24T13:11:34;10.38;;;9.25;;
16450;SDS011;12243;42.708;23.310;2023-08-24T13:14:01;10.27;;;9.45;;
16450;SDS011;12243;42.708;23.310;2023-08-24T13:16:28;10.40;;;9.50;;
16450;SDS011;12243;42.708;23.310;2023-08-24T13:18:55;10.45;;;9.50;;
16450;SDS011;12243;42.708;23.310;2023-08-24T13:21:24;10.35;;;9.45;;
16450;SDS011;12243;42.708;23.310;2023-08-24T13:23:51;9.75;;;8.85;;
16450;SDS011;12243;42.708;23.310;2023-08-24T13:26:18;10.35;;;9.38;;
16450;SDS011;12243;42.708;23.310;2023-08-24T13:28:46;10.68;;;9.73;;
16450;SDS011;12243;42.708;23.310;2023-08-24T13:31:13;11.68;;;9.07;;
16450;SDS011;12243;42.708;23.310;2023-08-24T13:33:39;9.77;;;8.68;;
16450;SDS011;12243;42.708;23.310;2023-08-24T13:36:06;9.77;;;8.88;;
16450;SDS011;12243;42.708;23.310;2023-08-24T13:38:34;9.90;;;9.02;;
16450;SDS011;12243;42.708;23.310;2023-08-24T13:41:01;9.60;;;8.60;;
16450;SDS011;12243;42.708;23.310;2023-08-24T13:43:29;13.40;;;9.02;;
16450;SDS011;12243;42.708;23.310;2023-08-24T13:45:56;12.57;;;9.32;;
16450;SDS011;12243;42.708;23.310;2023-08-24T13:48:23;10.40;;;9.45;;
16450;SDS011;12243;42.708;23.310;2023-08-24T13:50:50;10.10;;;9.30;;
16450;SDS011;12243;42.708;23.310;2023-08-24T13:53:17;10.32;;;9.18;;
16450;SDS011;12243;42.708;23.310;2023-08-24T13:55:45;9.88;;;9.18;;
16450;SDS011;12243;42.708;23.310;2023-08-24T13:58:12;10.90;;;9.90;;
16450;SDS011;12243;42.708;23.310;2023-08-24T14:00:39;10.55;;;9.55;;
16450;SDS011;12243;42.708;23.310;2023-08-24T14:03:06;10.30;;;9.18;;
16450;SDS011;12243;42.708;23.310;2023-08-24T14:05:33;10.00;;;9.00;;
16450;SDS011;12243;42.708;23.310;2023-08-24T14:08:04;12.10;;;10.38;;
16450;SDS011;12243;42.708;23.310;2023-08-24T14:10:32;11.93;;;9.68;;
16450;SDS011;12243;42.708;23.310;2023-08-24T14:13:00;12.45;;;9.65;;
16450;SDS011;12243;42.708;23.310;2023-08-24T14:15:28;12.40;;;9.85;;
16450;SDS011;12243;42.708;23.310;2023-08-24T14:17:55;10.77;;;9.77;;
16450;SDS011;12243;42.708;23.310;2023-08-24T14:20:22;10.77;;;9.77;;
16450;SDS011;12243;42.708;23.310;2023-08-24T14:22:49;10.70;;;9.73;;
16450;SDS011;12243;42.708;23.310;2023-08-24T14:25:16;10.35;;;9.48;;
16450;SDS011;12243;42.708;23.310;2023-08-24T14:27:43;10.60;;;9.50;;